Time;durP1;ratioP1;P1;durP2;ratioP2;P2;SDS_P1;SDS_P2;PMS_P1;PMS_P2;Temp;Humidity;BMP_temperature;BMP_pressure;BME280_temperature;BME280_humidity;BME280_pressure;Samples;Min_cycle;Max_cycle;Signal;HPM_P1;HPM_P2
2022/12/26 00:00:36;;;;;;;7.72;7.03;;;5.50;99.90;;;;;;5060863;28;20275;-72
2022/12/26 00:03:05;;;;;;;7.20;6.53;;;5.50;99.90;;;;;;5062950;28;20218;-72
2022/12/26 00:05:37;;;;;;;7.15;6.55;;;5.50;99.90;;;;;;5058805;28;20218;-72
2022/12/26 00:08:06;;;;;;;7.40;6.68;;;5.50;99.90;;;;;;5059413;28;20202;-72
2022/12/26 00:10:35;;;;;;;6.93;6.40;;;5.50;99.90;;;;;;5064184;28;20279;-73
2022/12/26 00:13:04;;;;;;;7.03;6.43;;;5.50;99.90;;;;;;5064828;28;20291;-72
2022/12/26 00:15:32;;;;;;;7.90;7.20;;;5.50;99.90;;;;;;5058177;28;20225;-73
2022/12/26 00:17:59;;;;;;;8.00;7.30;;;5.50;99.90;;;;;;5047886;28;20198;-73
2022/12/26 00:20:27;;;;;;;7.10;6.47;;;5.40;99.90;;;;;;5066901;28;20222;-73
2022/12/26 00:22:56;;;;;;;7.25;6.65;;;5.40;99.90;;;;;;5065767;28;20197;-72
2022/12/26 00:25:23;;;;;;;7.78;7.07;;;5.50;99.90;;;;;;5061713;28;20215;-73
2022/12/26 00:27:51;;;;;;;8.00;7.28;;;5.50;99.90;;;;;;5066115;28;20671;-73
2022/12/26 00:30:18;;;;;;;7.50;6.88;;;5.50;99.90;;;;;;5063161;28;20789;-73
2022/12/26 00:32:45;;;;;;;7.88;7.18;;;5.40;99.90;;;;;;5064167;28;20201;-74
2022/12/26 00:35:13;;;;;;;6.63;6.13;;;5.40;99.90;;;;;;5060201;28;20267;-73
2022/12/26 00:37:40;;;;;;;7.03;6.43;;;5.40;99.90;;;;;;5045884;28;20194;-73
2022/12/26 00:40:11;;;;;;;6.28;5.78;;;5.40;99.90;;;;;;5068525;28;20218;-75
2022/12/26 00:42:38;;;;;;;7.13;6.53;;;5.50;99.90;;;;;;5044991;28;20195;-73
2022/12/26 00:45:07;;;;;;;7.70;7.00;;;5.50;99.90;;;;;;5056946;28;20214;-72
2022/12/26 00:47:34;;;;;;;6.60;6.00;;;5.40;99.90;;;;;;5059261;28;20651;-72
2022/12/26 00:50:01;;;;;;;7.03;6.43;;;5.50;99.90;;;;;;5046171;28;20214;-73
2022/12/26 00:52:29;;;;;;;6.15;5.65;;;5.50;99.90;;;;;;5069159;28;20670;-73
2022/12/26 00:54:56;;;;;;;6.55;6.00;;;5.50;99.90;;;;;;5076370;28;20231;-72
2022/12/26 00:57:25;;;;;;;7.63;6.95;;;5.50;99.90;;;;;;5058398;28;21715;-73
2022/12/26 00:59:52;;;;;;;7.30;6.68;;;5.50;99.90;;;;;;5054938;28;20868;-73
2022/12/26 01:05:05;;;;;;;6.90;6.20;;;5.40;99.90;;;;;;5061314;28;20327;-72
2022/12/26 01:07:35;;;;;;;6.28;5.78;;;5.40;99.90;;;;;;5047507;28;20209;-72
2022/12/26 01:10:02;;;;;;;6.35;5.75;;;5.50;99.90;;;;;;5049721;28;20210;-72
2022/12/26 01:12:31;;;;;;;6.35;5.85;;;5.50;99.90;;;;;;5059112;28;20198;-73
2022/12/26 01:14:59;;;;;;;6.45;5.95;;;5.60;99.90;;;;;;5065145;28;20222;-73
2022/12/26 01:17:28;;;;;;;6.70;6.20;;;5.60;99.90;;;;;;5066661;28;20191;-73
2022/12/26 01:19:56;;;;;;;6.68;6.18;;;5.60;99.90;;;;;;5063265;28;20226;-72
2022/12/26 01:22:25;;;;;;;6.65;6.05;;;5.60;99.90;;;;;;5063354;28;20635;-72
2022/12/26 01:24:54;;;;;;;7.10;6.50;;;5.60;99.90;;;;;;5063638;28;20218;-73
2022/12/26 01:27:22;;;;;;;6.93;6.35;;;5.50;99.90;;;;;;5069377;28;20194;-73
2022/12/26 01:29:51;;;;;;;7.57;6.93;;;5.40;99.90;;;;;;5064859;28;20214;-73
2022/12/26 01:32:19;;;;;;;7.60;6.90;;;5.40;99.90;;;;;;5050863;28;20574;-72
2022/12/26 01:34:47;;;;;;;7.20;6.60;;;5.40;99.90;;;;;;5064824;28;20226;-72
2022/12/26 01:37:16;;;;;;;6.72;6.20;;;5.30;99.90;;;;;;5066905;28;20201;-73
2022/12/26 01:39:44;;;;;;;7.13;6.53;;;5.30;99.90;;;;;;5066292;28;20225;-72
2022/12/26 01:42:14;;;;;;;7.00;6.40;;;5.40;99.90;;;;;;5067760;28;20194;-72
2022/12/26 01:45:20;;;;;;;6.93;6.32;;;5.40;99.90;;;;;;5068737;28;20226;-72
2022/12/26 01:47:50;;;;;;;6.43;5.93;;;5.50;99.90;;;;;;5033529;28;20197;-72
2022/12/26 01:50:30;;;;;;;6.80;6.20;;;5.50;99.90;;;;;;5066674;28;20214;-73
2022/12/26 01:53:00;;;;;;;6.50;6.00;;;5.50;99.90;;;;;;5069165;28;20190;-73
2022/12/26 01:55:29;;;;;;;7.50;6.90;;;5.60;99.90;;;;;;5062158;28;20221;-73
2022/12/26 01:58:00;;;;;;;6.80;6.20;;;5.50;99.90;;;;;;5070240;28;20201;-72
2022/12/26 02:00:29;;;;;;;6.72;6.13;;;5.40;99.90;;;;;;5065487;28;20272;-74
2022/12/26 02:05:43;;;;;;;6.63;6.13;;;5.40;99.90;;;;;;5063655;28;20221;-73
2022/12/26 02:08:14;;;;;;;7.13;6.50;;;5.40;99.90;;;;;;5068791;28;20182;-72
2022/12/26 02:10:47;;;;;;;7.40;6.80;;;5.40;99.90;;;;;;5047007;28;20215;-74
2022/12/26 02:13:15;;;;;;;6.78;6.28;;;5.50;99.90;;;;;;5067803;28;20214;-72
2022/12/26 02:15:44;;;;;;;6.57;5.97;;;5.50;99.90;;;;;;5069886;28;20230;-74
2022/12/26 02:18:12;;;;;;;6.55;6.00;;;5.50;99.90;;;;;;5063836;28;20202;-72
2022/12/26 02:20:47;;;;;;;7.20;6.55;;;5.50;99.90;;;;;;5063707;28;20227;-73
2022/12/26 02:23:47;;;;;;;6.80;6.20;;;5.50;99.90;;;;;;5046407;28;20228;-72
2022/12/26 02:26:42;;;;;;;6.03;5.63;;;5.50;99.90;;;;;;5056869;28;20678;-73
2022/12/26 02:30:06;;;;;;;6.30;5.80;;;5.60;99.90;;;;;;5041103;28;20222;-74
2022/12/26 02:33:05;;;;;;;6.45;5.95;;;5.60;99.90;;;;;;5052023;28;20213;-73
2022/12/26 02:35:45;;;;;;;6.55;5.95;;;5.60;99.90;;;;;;5065248;28;20218;-73
2022/12/26 02:38:25;;;;;;;6.82;6.13;;;5.60;99.90;;;;;;5066949;28;20201;-75
2022/12/26 02:41:00;;;;;;;7.03;6.45;;;5.60;99.90;;;;;;5064209;28;20225;-73
2022/12/26 02:43:36;;;;;;;6.63;6.13;;;5.60;99.90;;;;;;5066892;28;20221;-74
2022/12/26 02:49:04;;;;;;;6.60;6.10;;;5.60;99.90;;;;;;5066462;28;20279;-73
2022/12/26 03:14:21;;;;;;;6.90;6.38;;;5.30;99.90;;;;;;5063843;28;20221;-74
2022/12/26 03:19:56;;;;;;;7.05;6.50;;;5.30;99.90;;;;;;5058217;28;20241;-73
2022/12/26 03:22:30;;;;;;;7.00;6.50;;;5.30;99.90;;;;;;5078589;28;20190;-73
2022/12/26 03:27:45;;;;;;;7.32;6.68;;;5.30;99.90;;;;;;5063905;28;20613;-73
2022/12/26 03:32:59;;;;;;;6.05;5.55;;;5.30;99.90;;;;;;5068494;28;20568;-73
2022/12/26 03:35:29;;;;;;;6.07;5.57;;;5.30;99.90;;;;;;5063691;28;20742;-74
2022/12/26 03:38:04;;;;;;;6.00;5.50;;;5.40;99.90;;;;;;5043242;28;20218;-73
2022/12/26 04:46:33;;;;;;;5.80;5.30;;;5.50;99.90;;;;;;5046078;28;20272;-71
2022/12/26 04:51:49;;;;;;;5.70;5.20;;;5.50;99.90;;;;;;5062426;28;20202;-72
2022/12/26 04:54:17;;;;;;;5.90;5.43;;;5.50;99.90;;;;;;5042969;28;20228;-73
2022/12/26 04:56:44;;;;;;;5.75;5.35;;;5.50;99.90;;;;;;5060936;28;20194;-72
2022/12/26 04:59:12;;;;;;;5.70;5.20;;;5.50;99.90;;;;;;5056346;28;20214;-73
2022/12/26 05:10:00;;;;;;;5.80;5.40;;;5.50;99.90;;;;;;5064223;28;20217;-72
2022/12/26 05:12:28;;;;;;;5.57;5.18;;;5.50;99.90;;;;;;5061128;28;20557;-71
2022/12/26 05:14:55;;;;;;;5.40;5.00;;;5.50;99.90;;;;;;5069560;28;20226;-72
2022/12/26 05:28:55;;;;;;;5.50;5.10;;;5.40;99.90;;;;;;5057642;28;20249;-73
2022/12/26 05:31:22;;;;;;;4.93;4.63;;;5.40;99.90;;;;;;5062571;28;20182;-72
2022/12/26 05:34:05;;;;;;;5.18;4.78;;;5.40;99.90;;;;;;5056271;28;20226;-76
2022/12/26 05:36:37;;;;;;;4.90;4.50;;;5.40;99.90;;;;;;5041353;28;20194;-73
2022/12/26 05:39:05;;;;;;;5.20;4.80;;;5.50;99.90;;;;;;5063594;28;20636;-72
2022/12/26 05:41:32;;;;;;;5.32;4.93;;;5.50;99.90;;;;;;5063774;28;20226;-72
2022/12/26 05:43:59;;;;;;;4.93;4.53;;;5.50;99.90;;;;;;5062794;28;20268;-72
2022/12/26 05:46:27;;;;;;;5.20;4.80;;;5.50;99.90;;;;;;5045556;28;20230;-72
2022/12/26 05:48:56;;;;;;;4.90;4.60;;;5.50;99.90;;;;;;5064682;28;20218;-72
2022/12/26 05:51:23;;;;;;;5.15;4.70;;;5.50;99.90;;;;;;5067655;28;20202;-73
2022/12/26 05:53:51;;;;;;;5.47;5.07;;;5.50;99.90;;;;;;5072292;28;20859;-72
2022/12/26 05:56:20;;;;;;;5.82;5.32;;;5.50;99.90;;;;;;5063174;28;20202;-73
2022/12/26 05:58:47;;;;;;;5.80;5.40;;;5.50;99.90;;;;;;5058444;28;20296;-72
2022/12/26 06:01:17;;;;;;;5.30;4.90;;;5.40;99.90;;;;;;5065430;28;20279;-73
2022/12/26 06:03:48;;;;;;;5.57;5.03;;;5.40;99.90;;;;;;5068135;28;20222;-73
2022/12/26 06:06:18;;;;;;;5.85;5.45;;;5.40;99.90;;;;;;5065173;28;20198;-73
2022/12/26 06:08:47;;;;;;;5.60;5.20;;;5.30;99.90;;;;;;5067913;28;20225;-73
2022/12/26 06:11:15;;;;;;;4.85;4.55;;;5.30;99.90;;;;;;5063532;28;20191;-72
2022/12/26 06:13:43;;;;;;;5.35;4.95;;;5.30;99.90;;;;;;5064651;28;20241;-72
2022/12/26 06:16:13;;;;;;;5.47;5.05;;;5.40;99.90;;;;;;5050131;28;20205;-72
2022/12/26 06:18:40;;;;;;;5.95;5.40;;;5.40;99.90;;;;;;5066712;28;20222;-72
2022/12/26 06:21:10;;;;;;;4.93;4.53;;;5.40;99.90;;;;;;5062882;28;20219;-72
2022/12/26 06:23:39;;;;;;;5.30;4.90;;;5.50;99.90;;;;;;5064972;28;20857;-73
2022/12/26 06:26:09;;;;;;;5.40;4.90;;;5.50;99.90;;;;;;5065841;28;20209;-72
2022/12/26 06:28:36;;;;;;;5.93;5.53;;;5.50;99.90;;;;;;5063586;28;20224;-72
2022/12/26 06:31:05;;;;;;;5.63;5.13;;;5.40;99.90;;;;;;5066593;28;20190;-72
2022/12/26 06:33:33;;;;;;;6.18;5.68;;;5.40;99.90;;;;;;5069014;28;21586;-72
2022/12/26 06:36:09;;;;;;;6.00;5.53;;;5.40;99.90;;;;;;5053024;28;20692;-74
2022/12/26 06:38:38;;;;;;;6.10;5.60;;;5.40;99.90;;;;;;5053471;28;20225;-72
2022/12/26 06:41:06;;;;;;;6.32;5.80;;;5.40;99.90;;;;;;5068039;28;20214;-74
2022/12/26 06:43:34;;;;;;;5.70;5.30;;;5.40;99.90;;;;;;5057346;28;20219;-73
2022/12/26 06:46:03;;;;;;;6.03;5.63;;;5.40;99.90;;;;;;5063424;28;20271;-74
2022/12/26 06:48:31;;;;;;;5.57;5.18;;;5.40;99.90;;;;;;5060363;28;20214;-74
2022/12/26 06:51:02;;;;;;;5.65;5.20;;;5.40;99.90;;;;;;5064784;28;20194;-73
2022/12/26 06:53:30;;;;;;;6.00;5.50;;;5.40;99.90;;;;;;5043033;28;20703;-74
2022/12/26 06:56:06;;;;;;;5.75;5.35;;;5.40;99.90;;;;;;5061045;28;20199;-73
2022/12/26 06:58:34;;;;;;;5.60;5.20;;;5.40;99.90;;;;;;5054797;28;20804;-74
2022/12/26 07:01:05;;;;;;;6.00;5.50;;;5.40;99.90;;;;;;5043047;28;20218;-75
2022/12/26 07:03:32;;;;;;;5.13;4.72;;;5.40;99.90;;;;;;5040210;28;20238;-75
2022/12/26 07:06:04;;;;;;;6.53;5.93;;;5.50;99.90;;;;;;5065729;28;20259;-74
2022/12/26 07:08:31;;;;;;;6.10;5.60;;;5.50;99.90;;;;;;5071389;28;20550;-74
2022/12/26 07:11:00;;;;;;;6.05;5.40;;;5.50;99.90;;;;;;5057149;28;20199;-76
2022/12/26 07:13:27;;;;;;;6.70;6.10;;;5.50;99.90;;;;;;5041849;28;20246;-75
2022/12/26 07:15:55;;;;;;;6.85;6.20;;;5.40;99.90;;;;;;5061444;28;20198;-75
2022/12/26 07:18:22;;;;;;;8.88;7.75;;;5.40;99.90;;;;;;5058961;28;20561;-74
2022/12/26 07:20:50;;;;;;;8.60;7.22;;;5.40;99.90;;;;;;5061551;28;20221;-74
2022/12/26 07:23:17;;;;;;;8.70;7.75;;;5.40;99.90;;;;;;5057723;28;20584;-74
2022/12/26 07:25:47;;;;;;;7.60;6.90;;;5.40;99.90;;;;;;5059417;28;20194;-74
2022/12/26 07:28:17;;;;;;;8.43;6.93;;;5.50;99.90;;;;;;5042446;28;20194;-75
2022/12/26 07:30:47;;;;;;;7.13;6.43;;;5.50;99.90;;;;;;5043733;28;20607;-74
2022/12/26 07:33:14;;;;;;;6.63;6.00;;;5.50;99.90;;;;;;5044261;28;20218;-74
2022/12/26 07:35:42;;;;;;;6.28;5.78;;;5.60;99.90;;;;;;5057431;28;20222;-76
2022/12/26 07:38:10;;;;;;;5.38;4.97;;;5.60;99.90;;;;;;5041220;28;20190;-75
2022/12/26 07:40:37;;;;;;;5.82;5.32;;;5.70;99.90;;;;;;5058535;28;20272;-74
2022/12/26 07:43:04;;;;;;;6.47;5.97;;;5.70;99.90;;;;;;5042533;28;20912;-75
2022/12/26 07:45:33;;;;;;;7.65;6.55;;;5.70;99.90;;;;;;5054232;28;20218;-75
2022/12/26 07:48:01;;;;;;;5.88;5.38;;;5.60;99.90;;;;;;5058998;28;20203;-75
2022/12/26 07:50:28;;;;;;;6.57;5.97;;;5.60;99.90;;;;;;5057100;28;20622;-74
2022/12/26 07:52:56;;;;;;;6.07;5.47;;;5.60;99.90;;;;;;5059238;28;20198;-74
2022/12/26 07:55:23;;;;;;;6.30;5.70;;;5.60;99.90;;;;;;5057897;28;20218;-75
2022/12/26 07:57:51;;;;;;;6.75;5.47;;;5.60;99.90;;;;;;5057938;28;20212;-74
2022/12/26 08:00:19;;;;;;;5.85;5.35;;;5.60;99.90;;;;;;5058885;28;20213;-73
2022/12/26 08:02:51;;;;;;;6.97;5.35;;;5.70;99.90;;;;;;5055666;28;20194;-73
2022/12/26 08:05:20;;;;;;;5.40;4.93;;;5.70;99.90;;;;;;5040477;28;20642;-76
2022/12/26 08:07:48;;;;;;;6.32;5.72;;;5.80;99.90;;;;;;5044394;28;20289;-75
2022/12/26 08:10:16;;;;;;;5.78;5.28;;;5.90;99.90;;;;;;5059221;28;20396;-75
2022/12/26 08:12:44;;;;;;;6.88;5.63;;;5.90;99.90;;;;;;5039621;28;20246;-75
2022/12/26 08:15:13;;;;;;;5.97;5.47;;;5.90;99.90;;;;;;5060802;28;20598;-74
2022/12/26 08:17:40;;;;;;;7.43;6.72;;;5.80;99.90;;;;;;5059740;28;20198;-78
2022/12/26 08:20:10;;;;;;;7.45;6.75;;;5.80;99.90;;;;;;5060756;28;20230;-75
2022/12/26 08:22:37;;;;;;;7.30;6.65;;;5.70;99.90;;;;;;5065929;28;20229;-75
2022/12/26 08:25:06;;;;;;;6.78;6.18;;;5.60;99.90;;;;;;5042851;28;20217;-75
2022/12/26 08:27:34;;;;;;;7.05;6.38;;;5.70;99.90;;;;;;5045032;28;20225;-76
2022/12/26 08:30:01;;;;;;;7.13;6.43;;;5.70;99.90;;;;;;5057472;28;20214;-75
2022/12/26 08:32:28;;;;;;;7.05;6.38;;;5.70;99.90;;;;;;5058993;28;20191;-75
2022/12/26 08:34:56;;;;;;;7.20;6.60;;;5.70;99.90;;;;;;5060006;28;20642;-76
2022/12/26 08:37:25;;;;;;;6.60;6.10;;;5.70;99.90;;;;;;5043550;28;20194;-77
2022/12/26 08:39:53;;;;;;;6.85;6.25;;;5.70;99.90;;;;;;5059371;28;20261;-75
2022/12/26 08:42:21;;;;;;;6.10;5.60;;;5.70;99.90;;;;;;5059449;28;20302;-74
2022/12/26 08:44:48;;;;;;;6.93;6.32;;;5.80;99.90;;;;;;5061115;28;20230;-75
2022/12/26 08:47:16;;;;;;;6.72;6.13;;;5.80;99.90;;;;;;5060355;28;20214;-75
2022/12/26 08:49:44;;;;;;;7.13;6.43;;;5.90;99.90;;;;;;5063983;28;20229;-74
2022/12/26 08:52:11;;;;;;;6.78;6.18;;;6.00;99.90;;;;;;5047000;28;20248;-75
2022/12/26 08:54:40;;;;;;;6.78;6.18;;;6.00;99.90;;;;;;5056017;28;20231;-76
2022/12/26 08:57:08;;;;;;;6.97;6.30;;;6.00;99.90;;;;;;5058100;28;20202;-76
2022/12/26 08:59:35;;;;;;;7.07;6.47;;;6.00;99.90;;;;;;5040191;28;20218;-76
2022/12/26 09:02:03;;;;;;;8.77;7.93;;;6.00;99.90;;;;;;5053729;28;20218;-77
2022/12/26 09:04:30;;;;;;;8.93;8.13;;;6.00;99.90;;;;;;5060488;28;20226;-76
2022/12/26 09:06:57;;;;;;;8.00;7.20;;;6.10;99.90;;;;;;5059477;28;20194;-77
2022/12/26 09:09:25;;;;;;;7.25;6.57;;;6.10;99.90;;;;;;5055764;28;20217;-74
2022/12/26 09:11:54;;;;;;;7.30;6.60;;;6.20;99.90;;;;;;5059521;28;20186;-77
2022/12/26 09:14:21;;;;;;;8.88;8.05;;;6.20;99.90;;;;;;5058836;28;20284;-75
2022/12/26 09:16:50;;;;;;;7.82;7.05;;;6.30;99.90;;;;;;5057866;28;20467;-75
2022/12/26 09:19:19;;;;;;;9.70;8.73;;;6.30;99.90;;;;;;5040058;28;20754;-77
2022/12/26 09:21:47;;;;;;;10.32;9.32;;;6.40;99.90;;;;;;5063699;28;20267;-78
2022/12/26 09:24:16;;;;;;;9.85;8.85;;;6.40;99.90;;;;;;5053608;28;20245;-76
2022/12/26 09:26:46;;;;;;;8.88;8.07;;;6.40;99.90;;;;;;5052736;28;20195;-74
2022/12/26 09:29:15;;;;;;;8.02;7.22;;;6.40;99.90;;;;;;5041751;28;20218;-76
2022/12/26 09:31:42;;;;;;;7.68;6.97;;;6.50;99.90;;;;;;5055126;28;20198;-76
2022/12/26 09:34:10;;;;;;;6.55;6.05;;;6.50;99.90;;;;;;5056267;28;20218;-77
2022/12/26 09:36:39;;;;;;;6.68;6.13;;;6.60;99.90;;;;;;5068169;28;20882;-75
2022/12/26 09:39:07;;;;;;;6.60;6.00;;;6.70;99.90;;;;;;5060694;28;20228;-76
2022/12/26 09:41:53;;;;;;;6.90;6.30;;;6.70;99.90;;;;;;5061973;28;20221;-75
2022/12/26 09:44:28;;;;;;;6.82;6.22;;;6.80;99.90;;;;;;5057175;28;20218;-77
2022/12/26 09:47:04;;;;;;;7.30;6.65;;;6.80;99.90;;;;;;5064093;28;20209;-77
2022/12/26 09:49:35;;;;;;;7.90;7.20;;;6.80;99.90;;;;;;5059330;28;20240;-77
2022/12/26 09:52:09;;;;;;;7.63;6.95;;;6.80;99.90;;;;;;5061393;28;20930;-75
2022/12/26 09:54:40;;;;;;;7.97;7.25;;;6.90;99.90;;;;;;5059141;28;20237;-76
2022/12/26 09:57:12;;;;;;;8.10;7.40;;;6.90;99.90;;;;;;5059791;28;20337;-77
2022/12/26 09:59:47;;;;;;;8.85;8.05;;;7.00;99.90;;;;;;5042283;28;20606;-76
2022/12/26 10:02:18;;;;;;;8.32;7.53;;;7.00;99.90;;;;;;5060598;28;20218;-75
2022/12/26 10:04:46;;;;;;;7.57;6.88;;;7.00;99.90;;;;;;5061815;28;20979;-76
2022/12/26 10:07:24;;;;;;;7.90;7.20;;;7.00;99.90;;;;;;5061893;28;20202;-76
2022/12/26 10:09:58;;;;;;;8.45;7.65;;;7.10;99.90;;;;;;5055526;28;20214;-75
2022/12/26 10:12:37;;;;;;;7.00;6.38;;;7.10;99.90;;;;;;5060651;28;21120;-75
2022/12/26 10:15:19;;;;;;;7.68;7.07;;;7.20;99.90;;;;;;5037288;28;20226;-75
2022/12/26 10:17:53;;;;;;;6.90;6.30;;;7.20;99.90;;;;;;5062523;28;20198;-75
2022/12/26 10:20:28;;;;;;;7.25;6.65;;;7.20;99.90;;;;;;5060642;28;20597;-76
2022/12/26 10:23:29;;;;;;;8.15;7.00;;;7.30;99.90;;;;;;5062476;28;20226;-76
2022/12/26 10:25:59;;;;;;;8.13;7.32;;;7.30;99.90;;;;;;5043034;28;20780;-75
2022/12/26 10:28:35;;;;;;;7.72;7.05;;;7.30;99.90;;;;;;5060466;28;20479;-76
2022/12/26 10:31:08;;;;;;;8.40;7.60;;;7.30;99.90;;;;;;5058143;28;20255;-75
2022/12/26 10:33:43;;;;;;;7.63;6.93;;;7.30;99.90;;;;;;5055550;28;20231;-75
2022/12/26 10:36:17;;;;;;;7.10;6.50;;;7.30;99.90;;;;;;5060475;28;20656;-75
2022/12/26 10:38:48;;;;;;;7.88;7.18;;;7.40;99.90;;;;;;5060270;28;20221;-75
2022/12/26 10:41:23;;;;;;;7.22;6.63;;;7.40;99.90;;;;;;5059969;28;20213;-74
2022/12/26 10:43:50;;;;;;;6.30;5.75;;;7.40;99.90;;;;;;5046310;28;20710;-75
2022/12/26 10:47:02;;;;;;;7.15;6.47;;;7.50;99.90;;;;;;5057056;28;20198;-75
2022/12/26 10:49:31;;;;;;;9.95;7.68;;;7.50;99.90;;;;;;5040242;28;20230;-74
2022/12/26 10:52:01;;;;;;;9.30;8.45;;;7.50;99.90;;;;;;5069940;28;20608;-76
2022/12/26 10:54:30;;;;;;;9.85;8.85;;;7.40;99.90;;;;;;5061412;28;20256;-74
2022/12/26 10:57:00;;;;;;;8.88;8.05;;;7.30;99.90;;;;;;5057741;28;20199;-75
2022/12/26 10:59:39;;;;;;;10.90;9.73;;;7.30;99.90;;;;;;5064244;28;20714;-74
2022/12/26 11:02:27;;;;;;;9.77;8.80;;;7.30;99.90;;;;;;5059443;28;20218;-75
2022/12/26 11:05:02;;;;;;;9.13;8.27;;;7.30;99.90;;;;;;5057124;28;21320;-75
2022/12/26 11:07:33;;;;;;;10.07;9.07;;;7.20;99.90;;;;;;5060177;28;20255;-74
2022/12/26 11:10:01;;;;;;;8.73;7.93;;;7.20;99.90;;;;;;5059013;28;20219;-74
2022/12/26 11:12:39;;;;;;;9.05;8.25;;;7.20;99.90;;;;;;5059715;28;20675;-75
2022/12/26 11:15:18;;;;;;;8.15;7.35;;;7.20;99.90;;;;;;5057741;28;20309;-75
2022/12/26 11:17:49;;;;;;;7.93;7.22;;;7.30;99.90;;;;;;5059640;28;20277;-75
2022/12/26 11:20:28;;;;;;;7.53;6.88;;;7.30;99.90;;;;;;5056412;28;20226;-76
2022/12/26 11:23:12;;;;;;;7.43;6.80;;;7.40;99.90;;;;;;5064076;28;20230;-75
2022/12/26 11:25:49;;;;;;;7.22;6.63;;;7.50;99.90;;;;;;5057741;28;20749;-76
2022/12/26 11:28:26;;;;;;;7.13;6.47;;;7.50;99.90;;;;;;5055541;28;20550;-74
2022/12/26 11:30:53;;;;;;;7.50;6.85;;;7.60;99.90;;;;;;5057641;28;20301;-75
2022/12/26 11:33:27;;;;;;;6.88;6.28;;;7.60;99.90;;;;;;5063126;28;20224;-77
2022/12/26 11:36:05;;;;;;;7.22;6.63;;;7.60;99.90;;;;;;5063172;28;20210;-75
2022/12/26 11:38:43;;;;;;;7.15;6.55;;;7.70;99.90;;;;;;5063712;28;20198;-76
2022/12/26 11:44:00;;;;;;;7.05;6.45;;;7.80;99.90;;;;;;5061487;28;20286;-75
2022/12/26 11:46:39;;;;;;;6.60;6.00;;;7.80;99.90;;;;;;5060101;28;20436;-76
2022/12/26 11:49:07;;;;;;;6.05;5.55;;;7.80;99.90;;;;;;5059086;28;20706;-74
2022/12/26 11:51:40;;;;;;;6.82;6.15;;;7.80;99.90;;;;;;5058255;28;20206;-75
2022/12/26 11:54:22;;;;;;;5.95;5.55;;;7.80;99.90;;;;;;5058788;28;20352;-75
2022/12/26 11:56:59;;;;;;;6.13;5.57;;;7.80;99.90;;;;;;5061978;28;20433;-75
2022/12/26 11:59:27;;;;;;;6.40;5.88;;;7.90;99.90;;;;;;5043779;28;20214;-75
2022/12/26 12:02:17;;;;;;;6.90;6.30;;;7.80;99.90;;;;;;5038033;28;20645;-75
2022/12/26 12:04:45;;;;;;;7.15;6.55;;;7.80;99.90;;;;;;5044653;28;20275;-77
2022/12/26 12:07:26;;;;;;;6.72;6.13;;;7.90;99.90;;;;;;5060311;28;20191;-76
2022/12/26 12:10:02;;;;;;;6.95;6.35;;;7.90;99.90;;;;;;5056117;28;20249;-77
2022/12/26 12:12:39;;;;;;;7.15;6.45;;;7.90;99.90;;;;;;5059511;28;20196;-74
2022/12/26 12:15:15;;;;;;;7.05;6.45;;;7.90;99.90;;;;;;5044554;28;20213;-75
2022/12/26 12:17:49;;;;;;;7.32;6.63;;;8.00;99.90;;;;;;5058716;28;20244;-74
2022/12/26 12:20:30;;;;;;;7.43;6.80;;;7.90;99.90;;;;;;5061296;28;20664;-74
2022/12/26 12:23:18;;;;;;;7.68;7.07;;;7.90;99.90;;;;;;5054181;28;20883;-76
2022/12/26 12:25:56;;;;;;;8.20;7.45;;;7.90;99.90;;;;;;5059463;28;20751;-75
2022/12/26 12:28:46;;;;;;;7.20;6.60;;;7.90;99.90;;;;;;5062403;28;20197;-74
2022/12/26 12:31:22;;;;;;;6.88;6.32;;;8.00;99.90;;;;;;5041954;28;20203;-73
2022/12/26 12:33:57;;;;;;;7.63;6.82;;;8.10;99.90;;;;;;5040688;28;20222;-73
2022/12/26 12:36:34;;;;;;;7.88;7.18;;;8.10;99.90;;;;;;5057486;28;20193;-73
2022/12/26 12:39:11;;;;;;;8.57;7.88;;;8.10;99.90;;;;;;5057921;28;20237;-74
2022/12/26 12:42:04;;;;;;;7.60;6.90;;;8.10;99.90;;;;;;5036425;28;20678;-74
2022/12/26 12:44:48;;;;;;;7.75;7.05;;;8.10;99.90;;;;;;5060140;28;20973;-74
2022/12/26 12:47:23;;;;;;;7.65;6.95;;;8.10;99.90;;;;;;5053083;28;20207;-73
2022/12/26 12:50:01;;;;;;;8.57;7.82;;;8.20;99.90;;;;;;5057406;28;20222;-76
2022/12/26 12:52:42;;;;;;;8.05;7.35;;;8.30;99.90;;;;;;5061794;28;20221;-75
2022/12/26 12:55:40;;;;;;;8.05;7.35;;;8.30;99.90;;;;;;5057762;28;20308;-73
2022/12/26 12:58:14;;;;;;;7.95;7.25;;;8.20;99.90;;;;;;5043176;28;20186;-73
2022/12/26 13:00:45;;;;;;;7.60;6.90;;;8.20;99.90;;;;;;5058051;28;20319;-72
2022/12/26 13:03:28;;;;;;;9.63;7.22;;;8.20;99.90;;;;;;5043181;28;20237;-72
2022/12/26 13:06:02;;;;;;;7.90;7.10;;;8.20;99.90;;;;;;5057747;28;20276;-73
2022/12/26 13:08:33;;;;;;;7.30;6.60;;;8.20;99.90;;;;;;5058765;28;20283;-73
2022/12/26 13:11:07;;;;;;;7.30;6.68;;;8.20;99.90;;;;;;5056004;28;20195;-74
2022/12/26 13:13:40;;;;;;;7.13;6.53;;;8.20;99.90;;;;;;5053273;28;20213;-73
2022/12/26 13:16:13;;;;;;;6.90;6.20;;;8.30;99.90;;;;;;5059965;28;20201;-72
2022/12/26 13:18:49;;;;;;;6.22;5.72;;;8.30;99.90;;;;;;5058357;28;20218;-77
2022/12/26 13:21:16;;;;;;;6.47;5.95;;;8.40;99.90;;;;;;5060622;28;20210;-71
2022/12/26 13:26:38;;;;;;;6.82;6.22;;;8.40;99.90;;;;;;5056140;28;20224;-73
2022/12/26 13:29:11;;;;;;;7.40;6.80;;;8.40;99.90;;;;;;5060902;28;20229;-76
2022/12/26 13:31:40;;;;;;;7.05;6.45;;;8.40;99.90;;;;;;5057666;28;20198;-77
2022/12/26 13:34:11;;;;;;;6.68;6.13;;;8.30;99.90;;;;;;5044712;28;20776;-75
2022/12/26 13:36:44;;;;;;;6.38;5.88;;;8.20;99.90;;;;;;5055356;28;20213;-74
2022/12/26 13:39:39;;;;;;;6.28;5.72;;;8.30;99.90;;;;;;5043684;28;20209;-75
2022/12/26 13:45:48;;;;;;;7.80;7.10;;;8.40;99.90;;;;;;5052776;28;20296;-76
2022/12/26 13:48:55;;;;;;;7.57;6.88;;;8.40;99.90;;;;;;5054960;28;20711;-77
2022/12/26 13:51:48;;;;;;;8.80;8.00;;;8.40;99.90;;;;;;5035425;28;21153;-79
2022/12/26 13:54:17;;;;;;;7.22;6.60;;;8.50;99.90;;;;;;5052557;28;20245;-75
2022/12/26 13:57:35;;;;;;;8.95;8.05;;;8.50;99.90;;;;;;5057069;28;20202;-74
2022/12/26 14:00:08;;;;;;;10.00;9.07;;;8.50;99.90;;;;;;4973408;28;20221;-76
2022/12/26 14:03:06;;;;;;;10.20;9.20;;;8.50;99.90;;;;;;4978779;28;20563;-75
2022/12/26 14:05:39;;;;;;;9.77;8.77;;;8.50;99.90;;;;;;5030577;28;20761;-79
2022/12/26 14:08:14;;;;;;;10.30;9.30;;;8.50;99.90;;;;;;5057188;28;20195;-77
2022/12/26 14:10:54;;;;;;;8.95;8.15;;;8.40;99.90;;;;;;5039394;28;21105;-79
2022/12/26 14:13:38;;;;;;;8.93;8.10;;;8.40;99.90;;;;;;5056443;28;20217;-79
2022/12/26 14:16:14;;;;;;;8.27;7.47;;;8.30;99.90;;;;;;5053847;28;20198;-79
2022/12/26 14:18:49;;;;;;;7.75;7.05;;;8.20;99.90;;;;;;5052862;28;20779;-80
2022/12/26 14:21:34;;;;;;;7.82;7.22;;;8.10;99.90;;;;;;5055786;28;20625;-81
2022/12/26 14:24:11;;;;;;;7.18;6.57;;;8.10;99.90;;;;;;5057698;28;20742;-74
2022/12/26 14:26:59;;;;;;;7.38;6.70;;;8.00;99.90;;;;;;5059260;28;20551;-75
2022/12/26 14:29:33;;;;;;;7.07;6.47;;;8.00;99.90;;;;;;5054923;28;20234;-78
2022/12/26 14:32:21;;;;;;;7.35;6.75;;;7.90;99.90;;;;;;5062745;28;20210;-77
2022/12/26 14:35:01;;;;;;;6.40;5.63;;;7.90;99.90;;;;;;5060055;28;20907;-77
2022/12/26 14:37:41;;;;;;;7.72;7.00;;;7.90;99.90;;;;;;5059957;28;20307;-76
2022/12/26 14:40:28;;;;;;;7.25;6.63;;;7.90;99.90;;;;;;5058366;28;20314;-76
2022/12/26 14:43:17;;;;;;;8.30;7.50;;;7.90;99.90;;;;;;5060654;28;20217;-74
2022/12/26 14:45:48;;;;;;;8.82;8.00;;;7.80;99.90;;;;;;5056786;28;20238;-75
2022/12/26 14:48:47;;;;;;;7.78;6.72;;;7.70;99.90;;;;;;5047950;28;20213;-77
2022/12/26 14:51:38;;;;;;;9.80;6.80;;;7.70;99.90;;;;;;5055473;28;20229;-74
2022/12/26 14:54:45;;;;;;;7.10;6.50;;;7.70;99.90;;;;;;5059792;28;20253;-75
2022/12/26 14:57:47;;;;;;;8.05;7.28;;;7.60;99.90;;;;;;5058267;28;20285;-76
2022/12/26 15:00:31;;;;;;;6.75;6.15;;;7.60;99.90;;;;;;5056889;28;20222;-74
2022/12/26 15:03:46;;;;;;;6.85;6.22;;;7.60;99.90;;;;;;5064193;28;20218;-74
2022/12/26 15:06:52;;;;;;;5.93;5.35;;;7.50;99.90;;;;;;5062862;28;20225;-74
2022/12/26 15:09:59;;;;;;;6.22;5.63;;;7.50;99.90;;;;;;5060474;28;20225;-74
2022/12/26 15:12:55;;;;;;;5.78;5.25;;;7.50;99.90;;;;;;5035312;28;20754;-75
2022/12/26 15:15:33;;;;;;;8.15;7.32;;;7.40;99.90;;;;;;5040664;28;20218;-73
2022/12/26 15:18:37;;;;;;;6.97;6.22;;;7.40;99.90;;;;;;5058366;28;20190;-75
2022/12/26 15:21:23;;;;;;;9.18;7.82;;;7.40;99.90;;;;;;5033789;28;20825;-72
2022/12/26 15:24:19;;;;;;;11.23;8.30;;;7.40;99.90;;;;;;5055667;28;20226;-74
2022/12/26 15:27:07;;;;;;;10.23;8.35;;;7.30;99.90;;;;;;5053861;28;20217;-74
2022/12/26 15:29:55;;;;;;;10.70;8.02;;;7.40;99.90;;;;;;5058457;28;20222;-73
2022/12/26 15:32:33;;;;;;;9.18;7.55;;;7.30;99.90;;;;;;5055834;28;20194;-74
2022/12/26 15:35:12;;;;;;;8.10;7.30;;;7.30;99.90;;;;;;5060362;28;20267;-74
2022/12/26 15:38:04;;;;;;;7.82;6.88;;;7.30;99.90;;;;;;5047044;28;20253;-74
2022/12/26 15:40:36;;;;;;;7.82;7.03;;;7.20;99.90;;;;;;5059024;28;20221;-74
2022/12/26 15:43:32;;;;;;;7.57;6.60;;;7.20;99.90;;;;;;5056433;28;20798;-73
2022/12/26 15:46:09;;;;;;;9.05;6.93;;;7.10;99.90;;;;;;5054713;28;20218;-73
2022/12/26 15:48:52;;;;;;;7.35;6.60;;;7.10;99.90;;;;;;5041717;28;20334;-73
2022/12/26 15:51:30;;;;;;;8.43;6.85;;;7.00;99.90;;;;;;5069690;28;20667;-74